sensor_id;sensor_type;location;lat;lon;timestamp;pressure;altitude;pressure_sealevel;temperature;humidity
73103;BME280;61294;65.988;29.172;2023-04-01T00:00:24;97210.59;;;-4.85;100.00
73103;BME280;61294;65.988;29.172;2023-04-01T00:02:50;97147.59;;;-5.27;100.00
73103;BME280;61294;65.988;29.172;2023-04-01T00:05:16;97142.38;;;-5.30;100.00
73103;BME280;61294;65.988;29.172;2023-04-01T00:07:43;97204.13;;;-4.99;100.00
73103;BME280;61294;65.988;29.172;2023-04-01T00:10:10;97194.38;;;-5.10;100.00
73103;BME280;61294;65.988;29.172;2023-04-01T00:12:38;97223.91;;;-4.97;100.00
73103;BME280;61294;65.988;29.172;2023-04-01T00:15:05;97228.06;;;-5.00;100.00
73103;BME280;61294;65.988;29.172;2023-04-01T00:17:32;97196.69;;;-5.17;100.00
73103;BME280;61294;65.988;29.172;2023-04-01T00:19:58;97222.81;;;-5.04;100.00
73103;BME280;61294;65.988;29.172;2023-04-01T00:22:25;97168.44;;;-5.43;100.00
73103;BME280;61294;65.988;29.172;2023-04-01T00:24:52;97240.66;;;-5.08;100.00
73103;BME280;61294;65.988;29.172;2023-04-01T00:27:18;97236.28;;;-5.11;100.00
73103;BME280;61294;65.988;29.172;2023-04-01T00:29:46;97247.31;;;-5.13;100.00
73103;BME280;61294;65.988;29.172;2023-04-01T00:32:13;97235.31;;;-5.14;100.00
73103;BME280;61294;65.988;29.172;2023-04-01T00:34:40;97237.88;;;-5.14;100.00
73103;BME280;61294;65.988;29.172;2023-04-01T00:37:07;97232.63;;;-5.17;100.00
73103;BME280;61294;65.988;29.172;2023-04-01T00:39:34;97239.47;;;-5.18;100.00
73103;BME280;61294;65.988;29.172;2023-04-01T00:42:01;97230.72;;;-5.23;100.00
73103;BME280;61294;65.988;29.172;2023-04-01T00:44:32;97194.72;;;-5.50;100.00
73103;BME280;61294;65.988;29.172;2023-04-01T00:46:59;97242.69;;;-5.24;100.00
73103;BME280;61294;65.988;29.172;2023-04-01T00:49:31;97251.19;;;-5.25;100.00
73103;BME280;61294;65.988;29.172;2023-04-01T00:52:00;97251.16;;;-5.26;100.00
73103;BME280;61294;65.988;29.172;2023-04-01T00:54:28;97244.34;;;-5.26;100.00
73103;BME280;61294;65.988;29.172;2023-04-01T00:56:59;97237.25;;;-5.33;100.00
73103;BME280;61294;65.988;29.172;2023-04-01T00:59:33;97252.41;;;-5.39;100.00
73103;BME280;61294;65.988;29.172;2023-04-01T01:02:01;97213.22;;;-5.59;100.00
73103;BME280;61294;65.988;29.172;2023-04-01T01:04:30;97241.13;;;-5.44;100.00
73103;BME280;61294;65.988;29.172;2023-04-01T01:07:20;97252.31;;;-5.42;100.00
73103;BME280;61294;65.988;29.172;2023-04-01T01:10:13;97251.31;;;-5.46;100.00
73103;BME280;61294;65.988;29.172;2023-04-01T01:12:54;97219.78;;;-5.67;100.00
73103;BME280;61294;65.988;29.172;2023-04-01T01:15:37;97261.44;;;-5.50;100.00
73103;BME280;61294;65.988;29.172;2023-04-01T01:18:33;97271.69;;;-5.50;100.00
73103;BME280;61294;65.988;29.172;2023-04-01T01:23:58;97265.50;;;-5.57;100.00
73103;BME280;61294;65.988;29.172;2023-04-01T01:29:34;97261.31;;;-5.53;100.00
73103;BME280;61294;65.988;29.172;2023-04-01T01:37:14;97231.19;;;-5.83;100.00
73103;BME280;61294;65.988;29.172;2023-04-01T01:39:43;97246.41;;;-5.88;100.00
73103;BME280;61294;65.988;29.172;2023-04-01T01:42:13;97288.44;;;-5.60;100.00
73103;BME280;61294;65.988;29.172;2023-04-01T01:44:42;97290.19;;;-5.59;100.00
73103;BME280;61294;65.988;29.172;2023-04-01T01:47:10;97289.44;;;-5.57;100.00
73103;BME280;61294;65.988;29.172;2023-04-01T01:49:36;97226.34;;;-6.00;100.00
73103;BME280;61294;65.988;29.172;2023-04-01T01:52:04;97304.63;;;-5.63;100.00
73103;BME280;61294;65.988;29.172;2023-04-01T01:54:30;97256.44;;;-5.94;100.00
73103;BME280;61294;65.988;29.172;2023-04-01T01:57:04;97266.31;;;-5.81;100.00
73103;BME280;61294;65.988;29.172;2023-04-01T01:59:33;97299.19;;;-5.70;100.00
73103;BME280;61294;65.988;29.172;2023-04-01T02:02:02;97261.56;;;-5.94;100.00
73103;BME280;61294;65.988;29.172;2023-04-01T02:04:35;97300.72;;;-5.76;100.00
73103;BME280;61294;65.988;29.172;2023-04-01T02:07:08;97308.44;;;-5.76;100.00
73103;BME280;61294;65.988;29.172;2023-04-01T02:09:36;97301.59;;;-5.75;100.00
73103;BME280;61294;65.988;29.172;2023-04-01T02:12:08;97311.03;;;-5.74;100.00
73103;BME280;61294;65.988;29.172;2023-04-01T02:17:27;97269.94;;;-6.00;100.00
73103;BME280;61294;65.988;29.172;2023-04-01T02:22:37;97291.91;;;-6.07;100.00
73103;BME280;61294;65.988;29.172;2023-04-01T02:25:07;97289.69;;;-5.96;100.00
73103;BME280;61294;65.988;29.172;2023-04-01T02:27:34;97327.66;;;-5.87;100.00
73103;BME280;61294;65.988;29.172;2023-04-01T02:30:00;97330.22;;;-5.87;100.00
73103;BME280;61294;65.988;29.172;2023-04-01T02:32:26;97318.09;;;-5.91;100.00
73103;BME280;61294;65.988;29.172;2023-04-01T02:34:53;97327.47;;;-5.92;100.00
73103;BME280;61294;65.988;29.172;2023-04-01T02:37:20;97300.13;;;-6.15;100.00
73103;BME280;61294;65.988;29.172;2023-04-01T02:39:46;97340.28;;;-5.92;100.00
73103;BME280;61294;65.988;29.172;2023-04-01T02:42:13;97325.56;;;-5.97;100.00
73103;BME280;61294;65.988;29.172;2023-04-01T02:44:40;97346.03;;;-5.99;100.00
73103;BME280;61294;65.988;29.172;2023-04-01T02:47:05;97310.06;;;-6.23;100.00
73103;BME280;61294;65.988;29.172;2023-04-01T02:49:31;97348.41;;;-6.03;100.00
73103;BME280;61294;65.988;29.172;2023-04-01T02:51:57;97354.81;;;-6.15;100.00
73103;BME280;61294;65.988;29.172;2023-04-01T02:54:23;97327.88;;;-6.26;100.00
73103;BME280;61294;65.988;29.172;2023-04-01T02:56:48;97327.75;;;-6.29;100.00
73103;BME280;61294;65.988;29.172;2023-04-01T02:59:14;97316.19;;;-6.40;100.00
73103;BME280;61294;65.988;29.172;2023-04-01T03:01:40;97336.19;;;-6.32;100.00
73103;BME280;61294;65.988;29.172;2023-04-01T03:04:06;97319.34;;;-6.48;100.00
73103;BME280;61294;65.988;29.172;2023-04-01T03:06:31;97372.31;;;-6.26;100.00
73103;BME280;61294;65.988;29.172;2023-04-01T03:08:57;97372.97;;;-6.31;100.00
73103;BME280;61294;65.988;29.172;2023-04-01T03:11:23;97377.06;;;-6.35;100.00
73103;BME280;61294;65.988;29.172;2023-04-01T03:13:49;97369.09;;;-6.43;100.00
73103;BME280;61294;65.988;29.172;2023-04-01T03:16:14;97369.09;;;-6.43;100.00
73103;BME280;61294;65.988;29.172;2023-04-01T03:18:41;97338.41;;;-6.62;100.00
73103;BME280;61294;65.988;29.172;2023-04-01T03:23:39;97343.63;;;-6.59;100.00
73103;BME280;61294;65.988;29.172;2023-04-01T03:26:05;97329.44;;;-6.72;100.00
73103;BME280;61294;65.988;29.172;2023-04-01T03:28:31;97388.69;;;-6.43;100.00
73103;BME280;61294;65.988;29.172;2023-04-01T03:30:56;97395.50;;;-6.44;100.00
73103;BME280;61294;65.988;29.172;2023-04-01T03:33:22;97328.94;;;-6.84;100.00
73103;BME280;61294;65.988;29.172;2023-04-01T03:35:48;97315.81;;;-6.92;100.00
73103;BME280;61294;65.988;29.172;2023-04-01T03:38:17;97403.88;;;-6.48;100.00
73103;BME280;61294;65.988;29.172;2023-04-01T03:40:44;97411.56;;;-6.48;100.00
73103;BME280;61294;65.988;29.172;2023-04-01T03:43:10;97421.69;;;-6.51;100.00
73103;BME280;61294;65.988;29.172;2023-04-01T03:45:44;97375.44;;;-6.75;100.00
73103;BME280;61294;65.988;29.172;2023-04-01T03:48:10;97416.44;;;-6.54;100.00
73103;BME280;61294;65.988;29.172;2023-04-01T03:50:36;97386.97;;;-6.85;100.00
73103;BME280;61294;65.988;29.172;2023-04-01T03:53:02;97424.63;;;-6.82;100.00
73103;BME280;61294;65.988;29.172;2023-04-01T03:55:28;97388.91;;;-7.18;100.00
73103;BME280;61294;65.988;29.172;2023-04-01T03:57:54;97421.19;;;-7.02;100.00
73103;BME280;61294;65.988;29.172;2023-04-01T04:00:20;97422.88;;;-7.03;100.00
73103;BME280;61294;65.988;29.172;2023-04-01T04:02:45;97381.94;;;-7.22;100.00
73103;BME280;61294;65.988;29.172;2023-04-01T04:05:11;97423.47;;;-7.08;100.00
73103;BME280;61294;65.988;29.172;2023-04-01T04:07:38;97388.44;;;-7.29;100.00
73103;BME280;61294;65.988;29.172;2023-04-01T04:10:05;97425.16;;;-7.09;100.00
73103;BME280;61294;65.988;29.172;2023-04-01T04:12:31;97437.09;;;-7.09;100.00
73103;BME280;61294;65.988;29.172;2023-04-01T04:14:57;97437.97;;;-7.09;100.00
73103;BME280;61294;65.988;29.172;2023-04-01T04:17:23;97408.44;;;-7.20;100.00
73103;BME280;61294;65.988;29.172;2023-04-01T04:19:49;97427.72;;;-7.09;100.00
73103;BME280;61294;65.988;29.172;2023-04-01T04:22:14;97445.22;;;-6.99;100.00
73103;BME280;61294;65.988;29.172;2023-04-01T04:24:40;97451.75;;;-7.05;100.00
73103;BME280;61294;65.988;29.172;2023-04-01T04:27:06;97449.69;;;-6.95;100.00
73103;BME280;61294;65.988;29.172;2023-04-01T04:29:32;97421.19;;;-7.02;100.00
73103;BME280;61294;65.988;29.172;2023-04-01T04:31:58;97448.94;;;-6.92;100.00
73103;BME280;61294;65.988;29.172;2023-04-01T04:34:23;97428.81;;;-7.04;99.65
73103;BME280;61294;65.988;29.172;2023-04-01T04:36:49;97460.25;;;-6.87;99.17
73103;BME280;61294;65.988;29.172;2023-04-01T04:39:15;97445.91;;;-6.83;99.05
73103;BME280;61294;65.988;29.172;2023-04-01T04:41:41;97454.41;;;-6.84;97.77
73103;BME280;61294;65.988;29.172;2023-04-01T04:44:07;97460.13;;;-6.90;97.20
73103;BME280;61294;65.988;29.172;2023-04-01T04:46:33;97456.81;;;-6.87;96.96
73103;BME280;61294;65.988;29.172;2023-04-01T04:48:59;97422.81;;;-7.04;96.37
73103;BME280;61294;65.988;29.172;2023-04-01T04:51:25;97458.47;;;-6.89;95.69
73103;BME280;61294;65.988;29.172;2023-04-01T04:53:50;97415.03;;;-7.25;94.74
73103;BME280;61294;65.988;29.172;2023-04-01T04:56:21;97466.38;;;-7.03;94.68
73103;BME280;61294;65.988;29.172;2023-04-01T04:58:48;97462.09;;;-7.04;94.33
73103;BME280;61294;65.988;29.172;2023-04-01T05:01:15;97470.50;;;-7.06;93.98
73103;BME280;61294;65.988;29.172;2023-04-01T05:03:42;97474.06;;;-7.03;93.86
73103;BME280;61294;65.988;29.172;2023-04-01T05:06:09;97478.25;;;-7.05;93.45
73103;BME280;61294;65.988;29.172;2023-04-01T05:08:35;97460.25;;;-7.06;93.22
73103;BME280;61294;65.988;29.172;2023-04-01T05:11:02;97484.53;;;-6.98;92.29
73103;BME280;61294;65.988;29.172;2023-04-01T05:13:28;97489.56;;;-7.00;91.86
73103;BME280;61294;65.988;29.172;2023-04-01T05:15:54;97494.00;;;-6.96;91.27
73103;BME280;61294;65.988;29.172;2023-04-01T05:18:20;97469.16;;;-6.98;91.61
73103;BME280;61294;65.988;29.172;2023-04-01T05:20:48;97484.94;;;-6.89;90.45
73103;BME280;61294;65.988;29.172;2023-04-01T05:23:15;97454.06;;;-7.12;90.27
73103;BME280;61294;65.988;29.172;2023-04-01T05:25:41;97496.19;;;-6.85;89.46
73103;BME280;61294;65.988;29.172;2023-04-01T05:28:06;97495.59;;;-6.80;89.49
73103;BME280;61294;65.988;29.172;2023-04-01T05:30:32;97498.28;;;-6.77;88.97
73103;BME280;61294;65.988;29.172;2023-04-01T05:32:58;97494.81;;;-6.77;87.96
73103;BME280;61294;65.988;29.172;2023-04-01T05:35:24;97422.94;;;-7.21;88.28
73103;BME280;61294;65.988;29.172;2023-04-01T05:37:50;97518.25;;;-6.69;88.22
73103;BME280;61294;65.988;29.172;2023-04-01T05:40:16;97431.44;;;-7.02;87.66
73103;BME280;61294;65.988;29.172;2023-04-01T05:42:41;97484.09;;;-6.68;87.50
73103;BME280;61294;65.988;29.172;2023-04-01T05:45:07;97460.47;;;-6.82;86.26
73103;BME280;61294;65.988;29.172;2023-04-01T05:47:33;97477.09;;;-6.53;86.42
73103;BME280;61294;65.988;29.172;2023-04-01T05:49:59;97501.78;;;-6.35;85.56
73103;BME280;61294;65.988;29.172;2023-04-01T05:52:25;97515.22;;;-6.20;86.03
73103;BME280;61294;65.988;29.172;2023-04-01T05:54:51;97506.72;;;-6.19;84.55
73103;BME280;61294;65.988;29.172;2023-04-01T05:57:17;97532.16;;;-6.04;84.95
73103;BME280;61294;65.988;29.172;2023-04-01T05:59:43;97534.19;;;-5.95;84.71
73103;BME280;61294;65.988;29.172;2023-04-01T06:02:09;97528.50;;;-5.88;83.81
73103;BME280;61294;65.988;29.172;2023-04-01T06:04:40;97547.59;;;-5.81;83.38
73103;BME280;61294;65.988;29.172;2023-04-01T06:07:16;97529.09;;;-5.74;82.62
73103;BME280;61294;65.988;29.172;2023-04-01T06:09:44;97532.75;;;-5.67;81.22
73103;BME280;61294;65.988;29.172;2023-04-01T06:17:45;97531.13;;;-5.65;80.68
73103;BME280;61294;65.988;29.172;2023-04-01T06:23:16;97540.28;;;-5.72;80.56
73103;BME280;61294;65.988;29.172;2023-04-01T06:26:15;97548.22;;;-5.87;80.13
73103;BME280;61294;65.988;29.172;2023-04-01T06:28:49;97537.91;;;-5.88;81.49
73103;BME280;61294;65.988;29.172;2023-04-01T06:31:49;97498.38;;;-6.15;82.08
73103;BME280;61294;65.988;29.172;2023-04-01T06:50:44;97549.19;;;-6.45;82.00
73103;BME280;61294;65.988;29.172;2023-04-01T06:53:35;97538.59;;;-6.53;81.84
73103;BME280;61294;65.988;29.172;2023-04-01T06:56:08;97552.34;;;-6.51;82.27
73103;BME280;61294;65.988;29.172;2023-04-01T07:01:28;97551.22;;;-6.38;82.42
73103;BME280;61294;65.988;29.172;2023-04-01T07:04:12;97533.34;;;-6.36;82.02
73103;BME280;61294;65.988;29.172;2023-04-01T07:07:08;97552.38;;;-6.10;80.94
73103;BME280;61294;65.988;29.172;2023-04-01T07:09:41;97571.66;;;-5.99;80.90
73103;BME280;61294;65.988;29.172;2023-04-01T07:14:58;97524.69;;;-6.19;80.20
73103;BME280;61294;65.988;29.172;2023-04-01T07:17:29;97547.47;;;-6.05;80.21
73103;BME280;61294;65.988;29.172;2023-04-01T07:20:20;97570.00;;;-5.98;79.38
73103;BME280;61294;65.988;29.172;2023-04-01T07:22:54;97577.91;;;-5.92;80.28
73103;BME280;61294;65.988;29.172;2023-04-01T07:25:29;97577.34;;;-5.85;80.21
73103;BME280;61294;65.988;29.172;2023-04-01T07:28:11;97582.66;;;-5.80;79.77
73103;BME280;61294;65.988;29.172;2023-04-01T07:31:15;97564.09;;;-5.75;79.34
73103;BME280;61294;65.988;29.172;2023-04-01T07:33:53;97574.38;;;-5.53;80.20
73103;BME280;61294;65.988;29.172;2023-04-01T07:36:38;97577.19;;;-5.47;78.32
73103;BME280;61294;65.988;29.172;2023-04-01T07:52:33;97561.06;;;-4.78;74.22
73103;BME280;61294;65.988;29.172;2023-04-01T07:55:19;97552.88;;;-4.68;75.67
73103;BME280;61294;65.988;29.172;2023-04-01T07:58:07;97562.44;;;-4.41;74.26
73103;BME280;61294;65.988;29.172;2023-04-01T08:04:00;97572.88;;;-4.12;73.91
73103;BME280;61294;65.988;29.172;2023-04-01T08:06:53;97568.78;;;-4.07;73.34
73103;BME280;61294;65.988;29.172;2023-04-01T08:09:47;97568.56;;;-4.13;72.29
73103;BME280;61294;65.988;29.172;2023-04-01T08:15:13;97589.72;;;-3.96;71.54
73103;BME280;61294;65.988;29.172;2023-04-01T08:23:19;97551.09;;;-3.19;69.93
73103;BME280;61294;65.988;29.172;2023-04-01T08:26:04;97588.47;;;-2.78;69.84
73103;BME280;61294;65.988;29.172;2023-04-01T08:29:15;97592.69;;;-2.80;68.44
73103;BME280;61294;65.988;29.172;2023-04-01T08:34:00;97608.47;;;-2.70;67.16
73103;BME280;61294;65.988;29.172;2023-04-01T08:36:34;97610.09;;;-2.72;66.10
73103;BME280;61294;65.988;29.172;2023-04-01T08:39:08;97605.25;;;-2.33;66.71
73103;BME280;61294;65.988;29.172;2023-04-01T08:42:03;97585.06;;;-2.17;66.03
73103;BME280;61294;65.988;29.172;2023-04-01T08:45:35;97619.34;;;-2.21;65.36
73103;BME280;61294;65.988;29.172;2023-04-01T08:50:54;97623.41;;;-2.30;64.98
73103;BME280;61294;65.988;29.172;2023-04-01T08:56:14;97635.84;;;-1.54;64.10
73103;BME280;61294;65.988;29.172;2023-04-01T09:13:09;97587.72;;;11.04;39.00
73103;BME280;61294;65.988;29.172;2023-04-01T09:21:18;97588.75;;;13.77;35.80
73103;BME280;61294;65.988;29.172;2023-04-01T09:27:15;97591.78;;;15.75;32.32
73103;BME280;61294;65.988;29.172;2023-04-01T09:33:02;97591.94;;;15.07;29.18
73103;BME280;61294;65.988;29.172;2023-04-01T09:36:04;97575.75;;;16.19;31.37
73103;BME280;61294;65.988;29.172;2023-04-01T09:39:24;97606.28;;;15.45;27.49
73103;BME280;61294;65.988;29.172;2023-04-01T09:42:26;97581.06;;;15.98;31.58
73103;BME280;61294;65.988;29.172;2023-04-01T09:45:07;97607.75;;;19.21;29.74
73103;BME280;61294;65.988;29.172;2023-04-01T09:48:00;97590.94;;;15.74;29.66
73103;BME280;61294;65.988;29.172;2023-04-01T09:51:00;97620.56;;;16.06;26.94
73103;BME280;61294;65.988;29.172;2023-04-01T09:53:54;97614.00;;;16.35;27.05
73103;BME280;61294;65.988;29.172;2023-04-01T10:05:54;97617.31;;;9.38;28.75
73103;BME280;61294;65.988;29.172;2023-04-01T10:22:23;97648.72;;;3.58;38.62
73103;BME280;61294;65.988;29.172;2023-04-01T10:28:10;97637.66;;;2.76;41.96
73103;BME280;61294;65.988;29.172;2023-04-01T10:33:47;97631.19;;;8.20;34.22
73103;BME280;61294;65.988;29.172;2023-04-01T10:39:32;97634.69;;;11.25;27.43
73103;BME280;61294;65.988;29.172;2023-04-01T10:42:06;97627.59;;;13.75;24.97
73103;BME280;61294;65.988;29.172;2023-04-01T11:32:02;97660.13;;;11.63;25.98
73103;BME280;61294;65.988;29.172;2023-04-01T11:42:37;97675.97;;;15.95;20.85
73103;BME280;61294;65.988;29.172;2023-04-01T11:45:36;97685.53;;;15.54;20.01
73103;BME280;61294;65.988;29.172;2023-04-01T11:48:46;97679.41;;;15.97;21.09
73103;BME280;61294;65.988;29.172;2023-04-01T11:54:20;97678.09;;;15.86;21.59
73103;BME280;61294;65.988;29.172;2023-04-01T12:05:51;97702.41;;;9.87;24.70
73103;BME280;61294;65.988;29.172;2023-04-01T12:11:17;97705.59;;;10.96;24.80
73103;BME280;61294;65.988;29.172;2023-04-01T12:17:02;97686.88;;;16.50;21.07
73103;BME280;61294;65.988;29.172;2023-04-01T12:22:23;97683.69;;;19.63;18.19
73103;BME280;61294;65.988;29.172;2023-04-01T12:31:02;97705.81;;;10.42;24.35
73103;BME280;61294;65.988;29.172;2023-04-01T12:33:45;97740.69;;;6.50;27.52
73103;BME280;61294;65.988;29.172;2023-04-01T12:36:28;97717.34;;;12.96;23.32
73103;BME280;61294;65.988;29.172;2023-04-01T12:39:07;97715.44;;;14.65;20.80
73103;BME280;61294;65.988;29.172;2023-04-01T12:49:25;97723.78;;;8.29;28.32
73103;BME280;61294;65.988;29.172;2023-04-01T12:55:02;97735.53;;;6.22;30.76
73103;BME280;61294;65.988;29.172;2023-04-01T13:00:30;97755.13;;;4.27;32.74
73103;BME280;61294;65.988;29.172;2023-04-01T13:08:23;97748.53;;;6.55;31.27
73103;BME280;61294;65.988;29.172;2023-04-01T13:11:34;97733.81;;;6.09;30.98
73103;BME280;61294;65.988;29.172;2023-04-01T13:14:05;97759.34;;;4.04;32.72
73103;BME280;61294;65.988;29.172;2023-04-01T13:16:42;97793.19;;;3.10;36.01
73103;BME280;61294;65.988;29.172;2023-04-01T13:19:36;97782.88;;;2.46;35.40
73103;BME280;61294;65.988;29.172;2023-04-01T13:22:50;97783.19;;;1.52;36.28
73103;BME280;61294;65.988;29.172;2023-04-01T13:25:44;97786.75;;;1.59;37.31
73103;BME280;61294;65.988;29.172;2023-04-01T13:36:56;97820.84;;;1.79;39.27
73103;BME280;61294;65.988;29.172;2023-04-01T13:39:46;97824.28;;;1.29;39.17
73103;BME280;61294;65.988;29.172;2023-04-01T13:42:23;97757.97;;;0.52;38.17
73103;BME280;61294;65.988;29.172;2023-04-01T13:45:03;97821.19;;;0.21;38.87
73103;BME280;61294;65.988;29.172;2023-04-01T13:48:14;97835.31;;;0.33;41.16
73103;BME280;61294;65.988;29.172;2023-04-01T13:51:11;97820.69;;;4.91;35.53
73103;BME280;61294;65.988;29.172;2023-04-01T14:03:39;97840.72;;;2.32;36.27
73103;BME280;61294;65.988;29.172;2023-04-01T14:11:35;97834.94;;;0.97;38.81
73103;BME280;61294;65.988;29.172;2023-04-01T14:17:01;97839.88;;;0.86;39.62
73103;BME280;61294;65.988;29.172;2023-04-01T14:28:12;97884.75;;;0.06;42.92
73103;BME280;61294;65.988;29.172;2023-04-01T14:37:14;97855.75;;;-0.81;43.62
73103;BME280;61294;65.988;29.172;2023-04-01T14:40:40;97903.41;;;-0.73;43.63
73103;BME280;61294;65.988;29.172;2023-04-01T14:50:53;97902.34;;;-0.79;45.79
73103;BME280;61294;65.988;29.172;2023-04-01T14:55:54;97874.59;;;-0.53;44.23
73103;BME280;61294;65.988;29.172;2023-04-01T14:58:22;97914.84;;;-0.32;45.28
73103;BME280;61294;65.988;29.172;2023-04-01T15:03:57;97901.56;;;-0.77;46.35
73103;BME280;61294;65.988;29.172;2023-04-01T15:06:38;97907.69;;;-1.03;46.45
73103;BME280;61294;65.988;29.172;2023-04-01T15:17:16;97922.28;;;-1.34;48.01
73103;BME280;61294;65.988;29.172;2023-04-01T15:34:08;97938.38;;;-1.14;49.02
73103;BME280;61294;65.988;29.172;2023-04-01T15:36:57;97920.88;;;-1.52;50.73
73103;BME280;61294;65.988;29.172;2023-04-01T15:39:48;97958.13;;;-1.45;50.62
73103;BME280;61294;65.988;29.172;2023-04-01T15:42:20;97969.13;;;-1.24;50.64
73103;BME280;61294;65.988;29.172;2023-04-01T15:47:40;97940.47;;;-1.86;51.84
73103;BME280;61294;65.988;29.172;2023-04-01T15:50:29;97970.78;;;-2.06;53.13
73103;BME280;61294;65.988;29.172;2023-04-01T15:53:23;97985.56;;;-2.26;53.10
73103;BME280;61294;65.988;29.172;2023-04-01T15:56:00;97990.22;;;-2.16;54.31
73103;BME280;61294;65.988;29.172;2023-04-01T15:58:54;97993.00;;;-2.10;53.72
73103;BME280;61294;65.988;29.172;2023-04-01T16:01:44;97986.72;;;-2.42;55.23
73103;BME280;61294;65.988;29.172;2023-04-01T16:04:36;98015.75;;;-2.48;55.68
73103;BME280;61294;65.988;29.172;2023-04-01T16:07:11;97971.31;;;-2.65;55.74
73103;BME280;61294;65.988;29.172;2023-04-01T16:13:04;98016.22;;;-2.58;56.58
73103;BME280;61294;65.988;29.172;2023-04-01T16:24:48;98057.31;;;-2.85;61.26
73103;BME280;61294;65.988;29.172;2023-04-01T16:29:40;98054.22;;;-2.99;64.88
73103;BME280;61294;65.988;29.172;2023-04-01T16:32:21;98057.72;;;-2.97;67.08
73103;BME280;61294;65.988;29.172;2023-04-01T16:35:12;98052.22;;;-3.06;67.21
73103;BME280;61294;65.988;29.172;2023-04-01T16:37:59;98067.75;;;-3.05;68.06
73103;BME280;61294;65.988;29.172;2023-04-01T16:40:42;98057.44;;;-3.05;68.28
73103;BME280;61294;65.988;29.172;2023-04-01T16:43:11;98061.00;;;-3.01;68.28
73103;BME280;61294;65.988;29.172;2023-04-01T16:51:46;98089.47;;;-3.19;70.23
73103;BME280;61294;65.988;29.172;2023-04-01T16:54:26;98083.28;;;-3.45;70.80
73103;BME280;61294;65.988;29.172;2023-04-01T17:02:24;98064.56;;;-3.62;72.22
73103;BME280;61294;65.988;29.172;2023-04-01T17:05:01;98066.50;;;-3.57;72.01
73103;BME280;61294;65.988;29.172;2023-04-01T17:08:01;98096.38;;;-3.39;72.29
73103;BME280;61294;65.988;29.172;2023-04-01T17:24:04;98115.97;;;-3.64;72.02
73103;BME280;61294;65.988;29.172;2023-04-01T17:35:13;98093.06;;;-3.99;71.64
73103;BME280;61294;65.988;29.172;2023-04-01T17:38:07;98128.13;;;-3.81;70.70
73103;BME280;61294;65.988;29.172;2023-04-01T17:41:18;98131.84;;;-3.94;71.29
73103;BME280;61294;65.988;29.172;2023-04-01T17:43:54;98121.78;;;-4.09;71.94
73103;BME280;61294;65.988;29.172;2023-04-01T17:49:03;98131.84;;;-4.13;71.61
73103;BME280;61294;65.988;29.172;2023-04-01T17:52:08;98151.34;;;-4.19;71.13
73103;BME280;61294;65.988;29.172;2023-04-01T17:59:47;98154.63;;;-4.03;71.46
73103;BME280;61294;65.988;29.172;2023-04-01T18:02:28;98165.44;;;-3.91;72.07
73103;BME280;61294;65.988;29.172;2023-04-01T18:05:30;98160.41;;;-3.88;70.99
73103;BME280;61294;65.988;29.172;2023-04-01T18:08:17;98145.00;;;-4.07;70.96
73103;BME280;61294;65.988;29.172;2023-04-01T18:16:47;98184.13;;;-3.95;70.71
73103;BME280;61294;65.988;29.172;2023-04-01T18:22:33;98175.66;;;-3.92;70.43
73103;BME280;61294;65.988;29.172;2023-04-01T18:27:43;98158.59;;;-4.10;70.86
73103;BME280;61294;65.988;29.172;2023-04-01T18:30:18;98189.06;;;-4.00;70.99
73103;BME280;61294;65.988;29.172;2023-04-01T18:36:05;98189.31;;;-4.13;70.67
73103;BME280;61294;65.988;29.172;2023-04-01T18:38:37;98198.56;;;-4.17;70.30
73103;BME280;61294;65.988;29.172;2023-04-01T18:41:22;98185.06;;;-4.30;70.15
73103;BME280;61294;65.988;29.172;2023-04-01T18:48:56;98201.94;;;-4.18;70.16
73103;BME280;61294;65.988;29.172;2023-04-01T18:51:34;98201.28;;;-4.33;69.87
73103;BME280;61294;65.988;29.172;2023-04-01T18:54:13;98176.50;;;-4.49;70.26
73103;BME280;61294;65.988;29.172;2023-04-01T18:56:45;98220.72;;;-4.20;69.97
73103;BME280;61294;65.988;29.172;2023-04-01T18:59:22;98229.19;;;-4.23;69.27
73103;BME280;61294;65.988;29.172;2023-04-01T19:04:38;98234.31;;;-4.23;70.01
73103;BME280;61294;65.988;29.172;2023-04-01T19:09:48;98232.78;;;-4.37;69.29
73103;BME280;61294;65.988;29.172;2023-04-01T19:12:34;98230.50;;;-4.31;70.07
73103;BME280;61294;65.988;29.172;2023-04-01T19:15:09;98236.31;;;-4.35;69.62
73103;BME280;61294;65.988;29.172;2023-04-01T19:17:51;98239.31;;;-4.44;69.92
73103;BME280;61294;65.988;29.172;2023-04-01T19:20:42;98252.34;;;-4.59;69.00
73103;BME280;61294;65.988;29.172;2023-04-01T19:26:12;98271.47;;;-4.88;68.98
73103;BME280;61294;65.988;29.172;2023-04-01T19:28:49;98256.31;;;-5.00;69.16
73103;BME280;61294;65.988;29.172;2023-04-01T19:34:36;98264.53;;;-5.24;69.87
73103;BME280;61294;65.988;29.172;2023-04-01T19:40:17;98267.22;;;-5.39;70.89
73103;BME280;61294;65.988;29.172;2023-04-01T19:45:34;98273.97;;;-5.57;71.00
73103;BME280;61294;65.988;29.172;2023-04-01T19:48:24;98305.06;;;-5.51;71.36
73103;BME280;61294;65.988;29.172;2023-04-01T19:51:16;98228.72;;;-6.04;71.97
73103;BME280;61294;65.988;29.172;2023-04-01T19:56:22;98248.28;;;-6.07;72.08
73103;BME280;61294;65.988;29.172;2023-04-01T20:01:58;98320.97;;;-5.90;72.95
73103;BME280;61294;65.988;29.172;2023-04-01T20:04:44;98282.78;;;-6.16;73.45
73103;BME280;61294;65.988;29.172;2023-04-01T20:10:08;98330.66;;;-6.00;73.39
73103;BME280;61294;65.988;29.172;2023-04-01T20:13:05;98290.16;;;-6.22;73.75
73103;BME280;61294;65.988;29.172;2023-04-01T20:15:37;98329.56;;;-6.05;73.82
73103;BME280;61294;65.988;29.172;2023-04-01T20:18:27;98313.25;;;-6.37;73.96
73103;BME280;61294;65.988;29.172;2023-04-01T20:21:02;98309.81;;;-6.38;74.34
73103;BME280;61294;65.988;29.172;2023-04-01T20:26:27;98285.34;;;-6.78;74.91
73103;BME280;61294;65.988;29.172;2023-04-01T20:37:44;98355.59;;;-6.59;75.65
73103;BME280;61294;65.988;29.172;2023-04-01T20:40:26;98351.88;;;-6.64;75.67
73103;BME280;61294;65.988;29.172;2023-04-01T20:45:38;98323.31;;;-7.00;76.00
73103;BME280;61294;65.988;29.172;2023-04-01T20:50:55;98391.53;;;-6.72;77.03